Flood watches and warnings may be in place at some locations. For the latest rainfall, river conditions, flood watches and warnings see BoM.

Forecasts are only available for sites displaying the forecast symbol.

Some water levels are actually in metres AHD (Australian Height Datum), click individual sites for more details.

Scroll for more >

River gauges, storages, and weirs in the Murray–Darling Basin

Type Locationsort descending River Water level Flow Volume Release Water temp Salinity Rainfall
River Gauge Albury (Union Bridge) Murray 1.67 m 24/01/2022 21:00 Not measured Not measured Not measured 19.6°C 24/01/2022 21:00 61.5 μS/cm 24/01/2022 21:00 Not measured Full data
River Gauge Balranald Murrumbidgee 5.94 m 24/01/2022 20:00 10518 ML/Day 24/01/2022 20:00 Not measured Not measured 26.7°C 24/01/2022 20:00 184.4 μS/cm 24/01/2022 20:00 Not measured Full data
River Gauge Bandiana Kiewa 1.49 m 24/01/2022 20:00 1173 ML/Day 24/01/2022 20:00 Not measured Not measured 24.3°C 24/01/2022 20:00 42.8 μS/cm 24/01/2022 20:00 Not measured Full data
River Gauge Barmah Choke Murray 2.51 m 24/01/2022 20:00 7437 ML/Day 24/01/2022 20:00 Not measured Not measured Not measured Not measured Not measured Full data
River Gauge Biggara Murray 0.79 m 24/01/2022 21:00 1380 ML/Day 24/01/2022 21:00 Not measured Not measured 20.1°C 24/01/2022 21:00 17.7 μS/cm 24/01/2022 9:00 0.00 mm 24/01/2022 21:00 Full data
River Gauge Bringenbrong Bridge Murray 1.97 m 24/01/2022 21:00 7083 ML/Day 24/01/2022 21:00 Not measured Not measured Not measured Not measured Not measured Full data
River Gauge Burtundy Darling 5.97 m 24/01/2022 20:00 13818 ML/Day 24/01/2022 20:00 Not measured Not measured 27.3°C 24/01/2022 20:00 367.9 μS/cm 24/01/2022 9:00 Not measured Full data
River Gauge Colemans Mitta 0.92 m 24/01/2022 21:00 213 ML/Day 24/01/2022 21:00 Not measured Not measured 22.2°C 24/01/2022 20:00 54 μS/cm 24/01/2022 20:00 Not measured Full data
River Gauge Colemans Mitta 0.92 m 24/01/2022 21:00 213 ML/Day 24/01/2022 21:00 Not measured Not measured 22.2°C 24/01/2022 20:00 54 μS/cm 24/01/2022 20:00 Not measured Full data
River Gauge Colignan Murray 3.42 m 24/01/2022 20:00 18236 ML/Day 24/01/2022 20:00 Not measured Not measured 27.2°C 24/01/2022 20:00 173 μS/cm 24/01/2022 20:00 Not measured Full data
River Gauge Corowa Murray 2.55 m 24/01/2022 21:00 11821 ML/Day 24/01/2022 21:00 Not measured Not measured 23.4°C 24/01/2022 21:00 60.3 μS/cm 24/01/2022 21:00 Not measured Full data
Storage Dartmouth Dam Mitta 481.17 m 24/01/2022 21:00 Not measured 3547 GL 24/01/2022 21:00 Not measured Not measured Not measured Not measured Full data
Storage Dartmouth Dam Mitta 481.17 m 24/01/2022 21:00 Not measured 3547 GL 24/01/2022 21:00 Not measured Not measured Not measured Not measured Full data
River Gauge Doctors Point Murray 2.65 m 24/01/2022 21:00 11087 ML/Day 24/01/2022 21:00 Not measured Not measured 19.4°C 24/01/2022 21:00 133.3 μS/cm 24/01/2022 16:00 Not measured Full data
River Gauge Echuca Wharf Murray 86.99 m 24/01/2022 20:00 Not measured Not measured Not measured Not measured Not measured Not measured Full data
River Gauge Edward Escape Wakool 0.9 m 24/01/2022 20:00 1115 ML/Day 24/01/2022 20:00 Not measured Not measured 27.2°C 24/01/2022 20:00 91.5 μS/cm 24/01/2022 9:00 Not measured Full data
River Gauge Edward River Offtake Murray 2.42 m 24/01/2022 21:00 1555 ML/Day 24/01/2022 21:00 Not measured Not measured 27.3°C 24/01/2022 20:00 65.3 μS/cm 24/01/2022 9:00 Not measured Full data
Weirs Euston Weir Downstream Murray 44.83 m 24/01/2022 20:00 18425 ML/Day 24/01/2022 20:00 Not measured Not measured 26.6°C 24/01/2022 20:00 171.3 μS/cm 24/01/2022 20:00 Not measured Full data
Weirs Euston Weir Upstream Murray 47.58 m 24/01/2022 10:00 Not measured 37 GL 24/01/2022 9:00 Not measured Not measured Not measured 145.9 mm 5/03/2020 9:00 Full data
River Gauge Flow to South Australia Murray Not measured Not measured Not measured 28067 ML/d24/01/2022 9:00 Not measured Not measured Not measured Full data
River Gauge Frenchman Creek Murray 27.6 m 24/01/2022 9:00 Not measured Not measured 627 ML/d24/01/2022 9:00 Not measured Not measured Not measured Full data
River Gauge Gulpa Creek Offtake Murray 3.01 m 24/01/2022 20:00 644 ML/Day 24/01/2022 20:00 Not measured Not measured Not measured Not measured Not measured Full data
River Gauge Hinnomunjie Mitta 1.05 m 24/01/2022 20:00 1486 ML/Day 24/01/2022 20:00 Not measured Not measured 20.9°C 24/01/2022 20:00 68.3 μS/cm 24/01/2022 20:00 0.00 mm 24/01/2022 20:00 Full data
Storage Hume Dam Murray 191.8 m 24/01/2022 21:00 Not measured 2965 GL 24/01/2022 21:00 10685.5 ML/d24/01/2022 21:00 Not measured Not measured 0.00 mm 24/01/2022 21:00 Full data
River Gauge Jingellic Murray 2.26 m 24/01/2022 20:00 9507 ML/Day 24/01/2022 20:00 Not measured Not measured 23.2°C 24/01/2022 20:00 45.9 μS/cm 24/01/2022 20:00 0.00 mm 24/01/2022 20:00 Full data
River Gauge Kerang Loddon 0.3 m 24/01/2022 20:00 104 ML/Day 24/01/2022 20:00 Not measured Not measured 26.9°C 24/01/2022 20:00 152.5 μS/cm 24/01/2022 20:00 Not measured Full data
River Gauge Lake Albert Murray 0.77 m 24/01/2022 22:00 Not measured 274 GL 24/01/2022 22:00 Not measured Not measured Not measured Not measured Full data
River Gauge Lake Alexandrina Murray 0.8 m 24/01/2022 22:00 Not measured 1646 GL 24/01/2022 22:00 Not measured Not measured 359 μS/cm 24/01/2022 19:00 Not measured Full data
Storage Lake Victoria Murray 25.61 m 24/01/2022 19:00 Not measured 515 GL 24/01/2022 19:00 Not measured 24.4°C 24/01/2022 19:00 168.5 μS/cm 24/01/2022 19:00 Not measured Full data
Weirs Lock 1 Downstream Murray 1.74 m 24/01/2022 19:00 Not measured Not measured 24789.4 ML/d24/01/2022 9:00 Not measured Not measured Not measured Full data
Weirs Lock 1 Upstream Murray 3.23 m 24/01/2022 19:00 Not measured Not measured Not measured 25.6°C 24/01/2022 19:00 262.3 μS/cm 24/01/2022 19:00 Not measured Full data
Weirs Lock 2 Downstream Murray 4.85 m 24/01/2022 19:00 Not measured Not measured Not measured Not measured Not measured Not measured Full data
Weirs Lock 2 Upstream Murray 6.12 m 24/01/2022 19:00 Not measured Not measured Not measured 26.1°C 24/01/2022 19:00 259.4 μS/cm 24/01/2022 19:00 Not measured Full data
Weirs Lock 3 Downstream Murray 7.71 m 24/01/2022 19:00 Not measured Not measured Not measured Not measured Not measured Not measured Full data
Weirs Lock 3 Upstream Murray 9.83 m 24/01/2022 19:00 Not measured Not measured Not measured Not measured Not measured Not measured Full data
Weirs Lock 4 Downstream Murray 12.08 m 24/01/2022 19:00 Not measured Not measured Not measured Not measured Not measured Not measured Full data
Weirs Lock 4 Upstream Murray 13.23 m 24/01/2022 19:00 Not measured Not measured Not measured Not measured Not measured Not measured Full data
Weirs Lock 5 Downstream Murray 14.57 m 24/01/2022 17:00 Not measured Not measured Not measured Not measured Not measured Not measured Full data
Weirs Lock 5 Upstream Murray 16.3 m 24/01/2022 17:00 Not measured Not measured Not measured 26.5°C 24/01/2022 17:00 260.9 μS/cm 24/01/2022 17:00 Not measured Full data
Weirs Lock 6 Downstream Murray 17.89 m 24/01/2022 19:00 Not measured Not measured Not measured Not measured Not measured Not measured Full data
Weirs Lock 6 Upstream Murray 19.27 m 24/01/2022 19:00 Not measured Not measured Not measured 26.5°C 24/01/2022 19:00 255.1 μS/cm 24/01/2022 19:00 Not measured Full data
Weirs Lock 7 Downstream Murray 22.85 m 24/01/2022 19:00 Not measured Not measured Not measured Not measured Not measured Not measured Full data
Weirs Lock 7 Upstream Murray 22.88 m 24/01/2022 19:00 Not measured Not measured Not measured 26.5°C 24/01/2022 19:00 255.2 μS/cm 24/01/2022 19:00 Not measured Full data
Weirs Lock 8 Upstream Murray 24.67 m 24/01/2022 19:00 Not measured Not measured Not measured 26.6°C 24/01/2022 19:00 264.2 μS/cm 24/01/2022 19:00 Not measured Full data
Weirs Lock 9 Downstream Murray 25.93 m 24/01/2022 19:00 Not measured Not measured Not measured Not measured Not measured Not measured Full data
Weirs Lock 9 Upstream Murray 27.32 m 24/01/2022 19:00 Not measured Not measured Not measured 26.7°C 24/01/2022 19:00 258.8 μS/cm 24/01/2022 19:00 Not measured Full data
River Gauge McCoy Bridge Goulburn 1.51 m 24/01/2022 20:00 1026 ML/Day 24/01/2022 20:00 Not measured Not measured 28.5°C 24/01/2022 20:00 126.6 μS/cm 24/01/2022 20:00 Not measured Full data
Storage Menindee Lakes Darling Not measured Not measured 1596 GL 24/01/2022 9:00 Not measured Not measured Not measured Not measured Full data
Weirs Mildura Weir downstream Murray 31.46 m 24/01/2022 20:00 Not measured Not measured Not measured 26.9°C 24/01/2022 20:00 181.5 μS/cm 24/01/2022 20:00 Not measured Full data
River Gauge Morgan Downstream Murray Not measured Not measured Not measured 23112.5 ML/d24/01/2022 19:00 Not measured 279.2 μS/cm 24/01/2022 17:00 Not measured Full data
River Gauge Mulwala Canal Murray Not measured Not measured Not measured 4264.5 ML/d24/01/2022 10:00 Not measured Not measured Not measured Full data
River Gauge Mundoo Barrage Murray 0.74 m 21/01/2022 9:00 Not measured Not measured Not measured Not measured Not measured Not measured Full data
River Gauge Murray Bridge Murray 0.7 m 24/01/2022 19:00 Not measured Not measured Not measured 25°C 24/01/2022 19:00 266.9 μS/cm 24/01/2022 19:00 Not measured Full data
River Gauge Peechelba Ovens 127.37 m 24/01/2022 20:00 1998 ML/Day 24/01/2022 20:00 Not measured Not measured 25.9°C 24/01/2022 20:00 61.8 μS/cm 24/01/2022 20:00 Not measured Full data
River Gauge Pinegrove Murray 1.55 m 24/01/2022 21:00 988 ML/Day 24/01/2022 21:00 Not measured Not measured 23°C 24/01/2022 21:00 66.4 μS/cm 24/01/2022 21:00 0.00 mm 24/01/2022 21:00 Full data
River Gauge Redcliffs Murray Not measured Not measured Not measured Not measured Not measured 183.3 μS/cm 24/01/2022 9:00 Not measured Full data
River Gauge Rochester Campaspe 1.63 m 24/01/2022 20:00 43 ML/Day 24/01/2022 20:00 Not measured Not measured 26.2°C 24/01/2022 20:00 643.8 μS/cm 24/01/2022 20:00 0.00 mm 24/01/2022 20:00 Full data
River Gauge Rufus River Murray 22.82 m 24/01/2022 9:00 Not measured Not measured 758.1 ML/d24/01/2022 9:00 Not measured 182 μS/cm 24/01/2022 16:00 Not measured Full data
Weirs Steven's Weir Downstream Edward 2.46 m 24/01/2022 20:00 2744 ML/Day 24/01/2022 20:00 Not measured Not measured 27°C 24/01/2022 20:00 85.7 μS/cm 24/01/2022 9:00 Not measured Full data
Weirs Steven's Weir Upstream Edward 4.97 m 24/01/2022 21:00 Not measured Not measured Not measured Not measured Not measured Not measured Full data
River Gauge Stoney Crossing Murray 1.61 m 24/01/2022 20:00 956 ML/Day 24/01/2022 20:00 Not measured 976.2 ML/d14/01/2022 7:45 28.4°C 24/01/2022 20:00 107.8 μS/cm 24/01/2022 20:00 Not measured Full data
River Gauge Swan Hill Murray 1.34 m 24/01/2022 20:00 6934 ML/Day 24/01/2022 20:00 Not measured Not measured 28.2°C 24/01/2022 20:00 83.4 μS/cm 24/01/2022 20:00 Not measured Full data
River Gauge Tallandoon Mitta 1.58 m 24/01/2022 20:00 939 ML/Day 24/01/2022 20:00 Not measured Not measured 24.9°C 24/01/2022 20:00 56.2 μS/cm 24/01/2022 20:00 Not measured Full data
River Gauge Tallandoon Mitta 1.58 m 24/01/2022 20:00 939 ML/Day 24/01/2022 20:00 Not measured Not measured 24.9°C 24/01/2022 20:00 56.2 μS/cm 24/01/2022 20:00 Not measured Full data
River Gauge Tauwitchere Barrage Murray 0.8 m 24/01/2022 19:00 Not measured Not measured Not measured Not measured Not measured Not measured Full data
River Gauge Tocumwal Murray 2.55 m 24/01/2022 20:00 12715 ML/Day 24/01/2022 20:00 Not measured Not measured 27°C 24/01/2022 20:00 84.3 μS/cm 24/01/2022 20:00 Not measured Full data
River Gauge Torrumbarry Headworks Murray 86.05 m 24/01/2022 20:00 Not measured Not measured 1900 ML/d24/01/2022 19:00 Not measured Not measured Not measured Full data
Weirs Torrumbarry Weir Downstream Murray 2.22 m 24/01/2022 20:00 6449 ML/Day 24/01/2022 20:00 Not measured Not measured 27.1°C 24/01/2022 20:00 74.3 μS/cm 24/01/2022 20:00 Not measured Full data
Weirs Torrumbarry Weir Upstream Murray 86.05 m 24/01/2022 20:00 Not measured 37 GL 24/01/2022 9:00 Not measured 26.7°C 24/01/2022 9:00 73.2 μS/cm 24/01/2022 17:00 0.00 mm 24/01/2022 9:00 Full data
River Gauge Wakool Canal Wakool 0.95 m 24/01/2022 21:00 Not measured Not measured 1559.8 ML/d24/01/2022 10:00 Not measured Not measured Not measured Full data
River Gauge Wakool Junction Murray 3.72 m 24/01/2022 20:00 11045 ML/Day 24/01/2022 20:00 Not measured Not measured 27.2°C 24/01/2022 20:00 115.6 μS/cm 24/01/2022 20:00 Not measured Full data
River Gauge Weir 32 Upstream Darling 5.98 m 24/01/2022 20:00 18135 ML/Day 24/01/2022 20:00 Not measured Not measured 27.5°C 24/01/2022 20:00 392.8 μS/cm 24/01/2022 20:00 Not measured Full data
Weirs Wentworth Weir Murray 29.23 m 24/01/2022 20:00 Not measured Not measured 28494 ML/d24/01/2022 10:00 Not measured 136.0 μS/cm 28/09/2021 7:45 Not measured Full data
River Gauge Wilcania Darling 9.54 m 24/01/2022 20:00 27561 ML/Day 24/01/2022 20:00 Not measured Not measured 28°C 24/01/2022 20:00 359.4 μS/cm 24/01/2022 9:00 Not measured Full data
River Gauge Yarrawonga Main Channel Murray 123.71 m 24/01/2022 20:00 Not measured Not measured 0.00 ML/d24/01/2022 20:00 Not measured Not measured Not measured Full data
Weirs Yarrawonga Weir Downstream Murray 1.46 m 24/01/2022 21:00 8854 ML/Day 24/01/2022 21:00 Not measured Not measured 25.9°C 24/01/2022 21:00 68.9 μS/cm 24/01/2022 9:00 Not measured Full data
Weirs Yarrawonga Weir Upstream Murray 124.82 m 24/01/2022 20:00 Not measured Not measured Not measured Not measured Not measured 0.00 mm 24/01/2022 20:00 Full data